sensor_id;sensor_type;location;lat;lon;timestamp;temperature;humidity
23685;DHT22;12020;51.384;6.908;2023-04-03T00:02:14;2.70;99.90
23685;DHT22;12020;51.384;6.908;2023-04-03T00:04:40;2.70;99.90
23685;DHT22;12020;51.384;6.908;2023-04-03T00:07:06;2.70;99.90
23685;DHT22;12020;51.384;6.908;2023-04-03T00:09:33;2.80;99.90
23685;DHT22;12020;51.384;6.908;2023-04-03T00:12:01;2.70;99.90
23685;DHT22;12020;51.384;6.908;2023-04-03T00:14:27;2.60;99.90
23685;DHT22;12020;51.384;6.908;2023-04-03T00:16:57;2.70;99.90
23685;DHT22;12020;51.384;6.908;2023-04-03T00:19:25;2.60;99.90
23685;DHT22;12020;51.384;6.908;2023-04-03T00:21:50;2.60;99.90
23685;DHT22;12020;51.384;6.908;2023-04-03T00:24:16;2.60;99.90
23685;DHT22;12020;51.384;6.908;2023-04-03T00:26:43;2.60;99.90
23685;DHT22;12020;51.384;6.908;2023-04-03T00:29:09;2.60;99.90
23685;DHT22;12020;51.384;6.908;2023-04-03T00:31:36;2.50;99.90
23685;DHT22;12020;51.384;6.908;2023-04-03T00:34:02;2.60;99.90
23685;DHT22;12020;51.384;6.908;2023-04-03T00:36:29;2.50;99.90
23685;DHT22;12020;51.384;6.908;2023-04-03T00:38:55;2.50;99.90
23685;DHT22;12020;51.384;6.908;2023-04-03T00:41:20;2.50;99.90
23685;DHT22;12020;51.384;6.908;2023-04-03T00:43:47;2.50;99.90
23685;DHT22;12020;51.384;6.908;2023-04-03T00:46:13;2.50;99.90
23685;DHT22;12020;51.384;6.908;2023-04-03T00:48:46;2.60;99.90
23685;DHT22;12020;51.384;6.908;2023-04-03T00:51:16;2.50;99.90
23685;DHT22;12020;51.384;6.908;2023-04-03T00:53:47;2.50;99.90
23685;DHT22;12020;51.384;6.908;2023-04-03T00:56:16;2.40;99.90
23685;DHT22;12020;51.384;6.908;2023-04-03T00:59:04;2.50;99.90
23685;DHT22;12020;51.384;6.908;2023-04-03T01:01:31;2.40;99.90
23685;DHT22;12020;51.384;6.908;2023-04-03T01:04:02;2.40;99.90
23685;DHT22;12020;51.384;6.908;2023-04-03T01:06:33;2.30;99.90
23685;DHT22;12020;51.384;6.908;2023-04-03T01:09:02;2.30;99.90
23685;DHT22;12020;51.384;6.908;2023-04-03T01:11:31;2.50;99.90
23685;DHT22;12020;51.384;6.908;2023-04-03T01:14:01;2.30;99.90
23685;DHT22;12020;51.384;6.908;2023-04-03T01:16:29;2.30;99.90
23685;DHT22;12020;51.384;6.908;2023-04-03T01:18:56;2.30;99.90
23685;DHT22;12020;51.384;6.908;2023-04-03T01:21:49;2.30;99.90
23685;DHT22;12020;51.384;6.908;2023-04-03T01:26:52;2.30;99.90
23685;DHT22;12020;51.384;6.908;2023-04-03T01:29:20;2.20;99.90
23685;DHT22;12020;51.384;6.908;2023-04-03T01:31:54;2.50;99.90
23685;DHT22;12020;51.384;6.908;2023-04-03T01:34:27;2.20;99.90
23685;DHT22;12020;51.384;6.908;2023-04-03T01:36:53;2.10;99.90
23685;DHT22;12020;51.384;6.908;2023-04-03T01:39:21;2.20;99.90
23685;DHT22;12020;51.384;6.908;2023-04-03T01:41:48;2.10;99.90
23685;DHT22;12020;51.384;6.908;2023-04-03T01:44:15;2.10;99.90
23685;DHT22;12020;51.384;6.908;2023-04-03T01:46:41;2.10;99.90
23685;DHT22;12020;51.384;6.908;2023-04-03T01:49:07;2.30;99.90
23685;DHT22;12020;51.384;6.908;2023-04-03T01:51:34;2.20;99.90
23685;DHT22;12020;51.384;6.908;2023-04-03T01:54:00;2.20;99.90
23685;DHT22;12020;51.384;6.908;2023-04-03T01:56:27;2.00;99.90
23685;DHT22;12020;51.384;6.908;2023-04-03T01:58:54;2.00;99.90
23685;DHT22;12020;51.384;6.908;2023-04-03T02:01:21;2.00;99.90
23685;DHT22;12020;51.384;6.908;2023-04-03T02:03:47;2.00;99.90
23685;DHT22;12020;51.384;6.908;2023-04-03T02:06:14;2.10;99.90
23685;DHT22;12020;51.384;6.908;2023-04-03T02:08:45;2.00;99.90
23685;DHT22;12020;51.384;6.908;2023-04-03T02:11:11;2.00;99.90
23685;DHT22;12020;51.384;6.908;2023-04-03T02:13:37;2.00;99.90
23685;DHT22;12020;51.384;6.908;2023-04-03T02:16:10;2.00;99.90
23685;DHT22;12020;51.384;6.908;2023-04-03T02:18:37;2.00;99.90
23685;DHT22;12020;51.384;6.908;2023-04-03T02:21:03;2.00;99.90
23685;DHT22;12020;51.384;6.908;2023-04-03T02:23:30;1.90;99.90
23685;DHT22;12020;51.384;6.908;2023-04-03T02:26:15;1.90;99.90
23685;DHT22;12020;51.384;6.908;2023-04-03T02:28:42;1.90;99.90
23685;DHT22;12020;51.384;6.908;2023-04-03T02:31:10;1.90;99.90
23685;DHT22;12020;51.384;6.908;2023-04-03T02:33:36;1.90;99.90
23685;DHT22;12020;51.384;6.908;2023-04-03T02:36:05;1.90;99.90
23685;DHT22;12020;51.384;6.908;2023-04-03T02:38:32;1.90;99.90
23685;DHT22;12020;51.384;6.908;2023-04-03T02:41:06;1.90;99.90
23685;DHT22;12020;51.384;6.908;2023-04-03T02:43:33;1.80;99.90
23685;DHT22;12020;51.384;6.908;2023-04-03T02:45:59;1.70;99.90
23685;DHT22;12020;51.384;6.908;2023-04-03T02:48:32;1.80;99.90
23685;DHT22;12020;51.384;6.908;2023-04-03T02:50:59;1.80;99.90
23685;DHT22;12020;51.384;6.908;2023-04-03T02:53:26;1.80;99.90
23685;DHT22;12020;51.384;6.908;2023-04-03T02:55:53;1.80;99.90
23685;DHT22;12020;51.384;6.908;2023-04-03T02:58:19;1.80;99.90
23685;DHT22;12020;51.384;6.908;2023-04-03T03:00:49;1.80;99.90
23685;DHT22;12020;51.384;6.908;2023-04-03T03:03:15;1.80;99.90
23685;DHT22;12020;51.384;6.908;2023-04-03T03:05:41;2.00;99.90
23685;DHT22;12020;51.384;6.908;2023-04-03T03:08:10;1.90;99.90
23685;DHT22;12020;51.384;6.908;2023-04-03T03:10:41;1.90;99.90
23685;DHT22;12020;51.384;6.908;2023-04-03T03:13:11;1.90;99.90
23685;DHT22;12020;51.384;6.908;2023-04-03T03:15:38;1.90;99.90
23685;DHT22;12020;51.384;6.908;2023-04-03T03:18:05;1.90;99.90
23685;DHT22;12020;51.384;6.908;2023-04-03T03:20:31;1.90;99.90
23685;DHT22;12020;51.384;6.908;2023-04-03T03:22:58;2.00;99.90
23685;DHT22;12020;51.384;6.908;2023-04-03T03:25:25;2.10;99.90
23685;DHT22;12020;51.384;6.908;2023-04-03T03:27:51;2.10;99.90
23685;DHT22;12020;51.384;6.908;2023-04-03T03:30:16;2.10;99.90
23685;DHT22;12020;51.384;6.908;2023-04-03T03:32:42;2.20;99.90
23685;DHT22;12020;51.384;6.908;2023-04-03T03:35:09;2.20;99.90
23685;DHT22;12020;51.384;6.908;2023-04-03T03:37:35;2.30;99.90
23685;DHT22;12020;51.384;6.908;2023-04-03T03:40:02;2.30;99.90
23685;DHT22;12020;51.384;6.908;2023-04-03T03:42:28;2.30;99.90
23685;DHT22;12020;51.384;6.908;2023-04-03T03:44:54;2.30;99.90
23685;DHT22;12020;51.384;6.908;2023-04-03T03:47:21;2.40;99.90
23685;DHT22;12020;51.384;6.908;2023-04-03T03:49:57;2.30;99.90
23685;DHT22;12020;51.384;6.908;2023-04-03T03:52:24;2.30;99.90
23685;DHT22;12020;51.384;6.908;2023-04-03T03:54:50;2.30;99.90
23685;DHT22;12020;51.384;6.908;2023-04-03T03:57:16;2.30;99.90
23685;DHT22;12020;51.384;6.908;2023-04-03T03:59:43;2.30;99.90
23685;DHT22;12020;51.384;6.908;2023-04-03T04:02:10;2.30;99.90
23685;DHT22;12020;51.384;6.908;2023-04-03T04:04:37;2.30;99.90
23685;DHT22;12020;51.384;6.908;2023-04-03T04:07:04;2.40;99.90
23685;DHT22;12020;51.384;6.908;2023-04-03T04:09:32;2.30;99.90
23685;DHT22;12020;51.384;6.908;2023-04-03T04:12:01;2.30;99.90
23685;DHT22;12020;51.384;6.908;2023-04-03T04:14:27;2.30;99.90
23685;DHT22;12020;51.384;6.908;2023-04-03T04:16:54;2.30;99.90
23685;DHT22;12020;51.384;6.908;2023-04-03T04:19:21;2.30;99.90
23685;DHT22;12020;51.384;6.908;2023-04-03T04:21:47;2.30;99.90
23685;DHT22;12020;51.384;6.908;2023-04-03T04:24:13;2.30;99.90
23685;DHT22;12020;51.384;6.908;2023-04-03T04:26:39;2.60;99.90
23685;DHT22;12020;51.384;6.908;2023-04-03T04:29:05;2.30;99.90
23685;DHT22;12020;51.384;6.908;2023-04-03T04:31:32;2.30;99.90
23685;DHT22;12020;51.384;6.908;2023-04-03T04:33:58;2.20;99.90
23685;DHT22;12020;51.384;6.908;2023-04-03T04:36:24;2.30;99.90
23685;DHT22;12020;51.384;6.908;2023-04-03T04:38:50;2.30;99.90
23685;DHT22;12020;51.384;6.908;2023-04-03T04:41:20;2.30;99.90
23685;DHT22;12020;51.384;6.908;2023-04-03T04:43:52;2.20;99.90
23685;DHT22;12020;51.384;6.908;2023-04-03T04:46:19;2.20;99.90
23685;DHT22;12020;51.384;6.908;2023-04-03T04:48:46;2.20;99.90
23685;DHT22;12020;51.384;6.908;2023-04-03T04:51:13;2.20;99.90
23685;DHT22;12020;51.384;6.908;2023-04-03T04:53:39;2.20;99.90
23685;DHT22;12020;51.384;6.908;2023-04-03T04:56:05;2.20;99.90
23685;DHT22;12020;51.384;6.908;2023-04-03T04:58:31;2.20;99.90
23685;DHT22;12020;51.384;6.908;2023-04-03T05:01:08;2.20;99.90
23685;DHT22;12020;51.384;6.908;2023-04-03T05:03:34;2.20;99.90
23685;DHT22;12020;51.384;6.908;2023-04-03T05:06:00;2.20;99.90
23685;DHT22;12020;51.384;6.908;2023-04-03T05:08:26;2.20;99.90
23685;DHT22;12020;51.384;6.908;2023-04-03T05:10:52;2.20;99.90
23685;DHT22;12020;51.384;6.908;2023-04-03T05:13:20;2.20;99.90
23685;DHT22;12020;51.384;6.908;2023-04-03T05:15:46;2.20;99.90
23685;DHT22;12020;51.384;6.908;2023-04-03T05:18:13;2.10;99.90
23685;DHT22;12020;51.384;6.908;2023-04-03T05:20:39;2.40;99.90
23685;DHT22;12020;51.384;6.908;2023-04-03T05:23:11;2.30;99.90
23685;DHT22;12020;51.384;6.908;2023-04-03T05:25:38;2.40;99.90
23685;DHT22;12020;51.384;6.908;2023-04-03T05:28:05;2.30;99.90
23685;DHT22;12020;51.384;6.908;2023-04-03T05:30:31;2.30;99.90
23685;DHT22;12020;51.384;6.908;2023-04-03T05:32:59;2.30;99.90
23685;DHT22;12020;51.384;6.908;2023-04-03T05:35:26;2.30;99.90
23685;DHT22;12020;51.384;6.908;2023-04-03T05:37:53;2.30;99.90
23685;DHT22;12020;51.384;6.908;2023-04-03T05:40:20;2.40;99.90
23685;DHT22;12020;51.384;6.908;2023-04-03T05:42:46;2.30;99.90
23685;DHT22;12020;51.384;6.908;2023-04-03T05:45:13;2.30;99.90
23685;DHT22;12020;51.384;6.908;2023-04-03T05:47:38;2.30;99.90
23685;DHT22;12020;51.384;6.908;2023-04-03T05:50:04;2.20;99.90
23685;DHT22;12020;51.384;6.908;2023-04-03T05:52:34;2.20;99.90
23685;DHT22;12020;51.384;6.908;2023-04-03T05:55:01;2.30;99.90
23685;DHT22;12020;51.384;6.908;2023-04-03T05:57:26;2.30;99.90
23685;DHT22;12020;51.384;6.908;2023-04-03T05:59:52;2.60;99.90
23685;DHT22;12020;51.384;6.908;2023-04-03T06:02:20;2.20;99.90
23685;DHT22;12020;51.384;6.908;2023-04-03T06:04:46;2.40;99.90
23685;DHT22;12020;51.384;6.908;2023-04-03T06:07:15;2.20;99.90
23685;DHT22;12020;51.384;6.908;2023-04-03T06:09:41;2.20;99.90
23685;DHT22;12020;51.384;6.908;2023-04-03T06:12:08;2.40;99.90
23685;DHT22;12020;51.384;6.908;2023-04-03T06:14:34;2.40;99.90
23685;DHT22;12020;51.384;6.908;2023-04-03T06:16:59;2.30;99.90
23685;DHT22;12020;51.384;6.908;2023-04-03T06:19:25;2.30;99.90
23685;DHT22;12020;51.384;6.908;2023-04-03T06:21:51;2.40;99.90
23685;DHT22;12020;51.384;6.908;2023-04-03T06:24:19;2.30;99.90
23685;DHT22;12020;51.384;6.908;2023-04-03T06:26:47;2.30;99.90
23685;DHT22;12020;51.384;6.908;2023-04-03T06:29:13;2.30;99.90
23685;DHT22;12020;51.384;6.908;2023-04-03T06:31:39;2.20;99.90
23685;DHT22;12020;51.384;6.908;2023-04-03T06:34:05;2.30;99.90
23685;DHT22;12020;51.384;6.908;2023-04-03T06:36:32;2.10;99.90
23685;DHT22;12020;51.384;6.908;2023-04-03T06:38:58;2.30;99.90
23685;DHT22;12020;51.384;6.908;2023-04-03T06:41:24;2.30;99.90
23685;DHT22;12020;51.384;6.908;2023-04-03T06:43:53;2.30;99.90
23685;DHT22;12020;51.384;6.908;2023-04-03T06:46:20;2.40;99.90
23685;DHT22;12020;51.384;6.908;2023-04-03T06:48:46;2.40;99.90
23685;DHT22;12020;51.384;6.908;2023-04-03T06:51:30;2.40;99.90
23685;DHT22;12020;51.384;6.908;2023-04-03T06:53:58;2.40;99.90
23685;DHT22;12020;51.384;6.908;2023-04-03T06:56:25;2.40;99.90
23685;DHT22;12020;51.384;6.908;2023-04-03T06:58:52;2.40;99.90
23685;DHT22;12020;51.384;6.908;2023-04-03T07:01:20;2.50;99.90
23685;DHT22;12020;51.384;6.908;2023-04-03T07:03:47;2.50;99.90
23685;DHT22;12020;51.384;6.908;2023-04-03T07:06:15;2.60;99.90
23685;DHT22;12020;51.384;6.908;2023-04-03T07:08:41;2.60;99.90
23685;DHT22;12020;51.384;6.908;2023-04-03T07:11:11;2.60;99.90
23685;DHT22;12020;51.384;6.908;2023-04-03T07:13:37;2.70;99.90
23685;DHT22;12020;51.384;6.908;2023-04-03T07:16:03;2.80;99.90
23685;DHT22;12020;51.384;6.908;2023-04-03T07:18:30;2.80;99.90
23685;DHT22;12020;51.384;6.908;2023-04-03T07:20:57;2.90;99.90
23685;DHT22;12020;51.384;6.908;2023-04-03T07:23:23;3.00;99.90
23685;DHT22;12020;51.384;6.908;2023-04-03T07:25:50;3.00;99.90
23685;DHT22;12020;51.384;6.908;2023-04-03T07:28:17;3.10;99.90
23685;DHT22;12020;51.384;6.908;2023-04-03T07:30:51;3.20;99.90
23685;DHT22;12020;51.384;6.908;2023-04-03T07:33:19;3.30;99.90
23685;DHT22;12020;51.384;6.908;2023-04-03T07:35:45;3.50;99.90
23685;DHT22;12020;51.384;6.908;2023-04-03T07:38:12;3.40;99.90
23685;DHT22;12020;51.384;6.908;2023-04-03T07:40:38;3.60;99.90
23685;DHT22;12020;51.384;6.908;2023-04-03T07:43:05;3.70;99.90
23685;DHT22;12020;51.384;6.908;2023-04-03T07:45:34;3.90;99.90
23685;DHT22;12020;51.384;6.908;2023-04-03T07:48:00;4.00;99.90
23685;DHT22;12020;51.384;6.908;2023-04-03T07:50:26;4.20;99.90
23685;DHT22;12020;51.384;6.908;2023-04-03T07:52:52;4.40;99.90
23685;DHT22;12020;51.384;6.908;2023-04-03T07:55:21;4.60;99.90
23685;DHT22;12020;51.384;6.908;2023-04-03T07:57:47;4.80;99.90
23685;DHT22;12020;51.384;6.908;2023-04-03T08:00:13;5.00;99.90
23685;DHT22;12020;51.384;6.908;2023-04-03T08:02:39;5.20;99.90
23685;DHT22;12020;51.384;6.908;2023-04-03T08:05:05;5.40;99.90
23685;DHT22;12020;51.384;6.908;2023-04-03T08:07:31;5.50;99.90
23685;DHT22;12020;51.384;6.908;2023-04-03T08:09:56;5.60;99.90
23685;DHT22;12020;51.384;6.908;2023-04-03T08:12:22;5.70;99.90
23685;DHT22;12020;51.384;6.908;2023-04-03T08:14:48;5.80;99.90
23685;DHT22;12020;51.384;6.908;2023-04-03T08:17:13;5.90;99.90
23685;DHT22;12020;51.384;6.908;2023-04-03T08:19:40;6.10;99.90
23685;DHT22;12020;51.384;6.908;2023-04-03T08:22:06;6.10;99.90
23685;DHT22;12020;51.384;6.908;2023-04-03T08:24:33;6.30;99.90
23685;DHT22;12020;51.384;6.908;2023-04-03T08:26:59;6.30;99.90
23685;DHT22;12020;51.384;6.908;2023-04-03T08:29:25;6.30;99.90
23685;DHT22;12020;51.384;6.908;2023-04-03T08:31:51;6.50;99.90
23685;DHT22;12020;51.384;6.908;2023-04-03T08:34:17;6.60;99.90
23685;DHT22;12020;51.384;6.908;2023-04-03T08:36:43;6.70;99.90
23685;DHT22;12020;51.384;6.908;2023-04-03T08:39:09;6.80;99.90
23685;DHT22;12020;51.384;6.908;2023-04-03T08:41:36;7.00;99.90
23685;DHT22;12020;51.384;6.908;2023-04-03T08:44:28;7.20;99.90
23685;DHT22;12020;51.384;6.908;2023-04-03T08:47:22;7.40;99.90
23685;DHT22;12020;51.384;6.908;2023-04-03T08:57:47;8.10;99.90
23685;DHT22;12020;51.384;6.908;2023-04-03T09:00:18;8.20;99.90
23685;DHT22;12020;51.384;6.908;2023-04-03T09:02:47;8.10;99.90
23685;DHT22;12020;51.384;6.908;2023-04-03T09:05:20;8.10;99.90
23685;DHT22;12020;51.384;6.908;2023-04-03T09:07:55;8.20;99.90
23685;DHT22;12020;51.384;6.908;2023-04-03T09:10:26;8.30;99.90
23685;DHT22;12020;51.384;6.908;2023-04-03T09:13:08;8.30;99.90
23685;DHT22;12020;51.384;6.908;2023-04-03T09:15:39;8.40;99.90
23685;DHT22;12020;51.384;6.908;2023-04-03T09:18:12;8.50;99.90
23685;DHT22;12020;51.384;6.908;2023-04-03T09:20:53;8.60;99.90
23685;DHT22;12020;51.384;6.908;2023-04-03T09:23:50;8.60;99.90
23685;DHT22;12020;51.384;6.908;2023-04-03T09:26:26;8.70;99.90
23685;DHT22;12020;51.384;6.908;2023-04-03T09:29:00;8.80;99.90
23685;DHT22;12020;51.384;6.908;2023-04-03T09:31:31;8.90;99.90
23685;DHT22;12020;51.384;6.908;2023-04-03T09:34:04;9.10;99.90
23685;DHT22;12020;51.384;6.908;2023-04-03T09:36:44;9.30;99.90
23685;DHT22;12020;51.384;6.908;2023-04-03T09:39:15;9.40;99.90
23685;DHT22;12020;51.384;6.908;2023-04-03T09:41:54;9.50;99.50
23685;DHT22;12020;51.384;6.908;2023-04-03T09:44:23;9.60;99.80
23685;DHT22;12020;51.384;6.908;2023-04-03T09:46:49;9.70;98.90
23685;DHT22;12020;51.384;6.908;2023-04-03T09:49:16;9.90;98.10
23685;DHT22;12020;51.384;6.908;2023-04-03T09:51:42;9.90;95.40
23685;DHT22;12020;51.384;6.908;2023-04-03T09:54:30;9.90;95.30
23685;DHT22;12020;51.384;6.908;2023-04-03T09:57:00;9.80;93.90
23685;DHT22;12020;51.384;6.908;2023-04-03T09:59:26;9.80;93.20
23685;DHT22;12020;51.384;6.908;2023-04-03T10:02:39;9.80;92.40
23685;DHT22;12020;51.384;6.908;2023-04-03T10:07:50;9.80;94.50
23685;DHT22;12020;51.384;6.908;2023-04-03T10:10:20;9.90;93.90
23685;DHT22;12020;51.384;6.908;2023-04-03T10:12:48;9.90;93.80
23685;DHT22;12020;51.384;6.908;2023-04-03T10:15:17;9.90;93.80
23685;DHT22;12020;51.384;6.908;2023-04-03T10:18:06;10.10;94.40
23685;DHT22;12020;51.384;6.908;2023-04-03T10:20:43;10.20;94.00
23685;DHT22;12020;51.384;6.908;2023-04-03T10:23:37;10.20;93.10
23685;DHT22;12020;51.384;6.908;2023-04-03T10:34:37;10.40;93.40
23685;DHT22;12020;51.384;6.908;2023-04-03T10:42:33;10.20;91.60
23685;DHT22;12020;51.384;6.908;2023-04-03T10:45:46;10.20;91.70
23685;DHT22;12020;51.384;6.908;2023-04-03T10:56:40;10.70;92.80
23685;DHT22;12020;51.384;6.908;2023-04-03T10:59:15;10.70;93.10
23685;DHT22;12020;51.384;6.908;2023-04-03T11:01:46;10.70;92.80
23685;DHT22;12020;51.384;6.908;2023-04-03T11:04:15;10.70;92.50
23685;DHT22;12020;51.384;6.908;2023-04-03T11:07:02;10.50;92.80
23685;DHT22;12020;51.384;6.908;2023-04-03T11:09:39;10.50;93.60
23685;DHT22;12020;51.384;6.908;2023-04-03T11:12:18;10.50;92.90
23685;DHT22;12020;51.384;6.908;2023-04-03T11:14:47;10.30;93.10
23685;DHT22;12020;51.384;6.908;2023-04-03T11:22:33;10.20;94.00
23685;DHT22;12020;51.384;6.908;2023-04-03T11:25:04;10.10;94.40
23685;DHT22;12020;51.384;6.908;2023-04-03T11:30:21;10.10;93.80
23685;DHT22;12020;51.384;6.908;2023-04-03T11:35:17;10.00;93.80
23685;DHT22;12020;51.384;6.908;2023-04-03T11:37:50;10.00;94.50
23685;DHT22;12020;51.384;6.908;2023-04-03T11:40:28;10.00;93.50
23685;DHT22;12020;51.384;6.908;2023-04-03T11:43:29;9.90;93.60
23685;DHT22;12020;51.384;6.908;2023-04-03T11:46:01;10.00;95.90
23685;DHT22;12020;51.384;6.908;2023-04-03T11:50:59;10.10;94.10
23685;DHT22;12020;51.384;6.908;2023-04-03T11:53:43;10.10;93.90
23685;DHT22;12020;51.384;6.908;2023-04-03T12:01:56;9.90;94.40
23685;DHT22;12020;51.384;6.908;2023-04-03T12:04:26;9.80;93.00
23685;DHT22;12020;51.384;6.908;2023-04-03T12:06:54;9.80;94.10
23685;DHT22;12020;51.384;6.908;2023-04-03T12:11:59;9.90;92.20
23685;DHT22;12020;51.384;6.908;2023-04-03T12:14:28;10.00;92.80
23685;DHT22;12020;51.384;6.908;2023-04-03T12:16:55;10.00;93.00
23685;DHT22;12020;51.384;6.908;2023-04-03T12:19:40;10.10;93.10
23685;DHT22;12020;51.384;6.908;2023-04-03T12:22:17;10.20;93.00
23685;DHT22;12020;51.384;6.908;2023-04-03T12:24:50;10.20;91.20
23685;DHT22;12020;51.384;6.908;2023-04-03T12:27:30;10.10;91.10
23685;DHT22;12020;51.384;6.908;2023-04-03T12:35:43;9.90;90.60
23685;DHT22;12020;51.384;6.908;2023-04-03T12:41:15;9.90;91.10
23685;DHT22;12020;51.384;6.908;2023-04-03T12:46:58;9.90;91.80
23685;DHT22;12020;51.384;6.908;2023-04-03T12:49:35;9.90;91.40
23685;DHT22;12020;51.384;6.908;2023-04-03T12:52:22;9.90;91.50
23685;DHT22;12020;51.384;6.908;2023-04-03T12:54:50;9.80;92.10
23685;DHT22;12020;51.384;6.908;2023-04-03T12:57:19;9.90;92.40
23685;DHT22;12020;51.384;6.908;2023-04-03T12:59:45;9.90;91.50
23685;DHT22;12020;51.384;6.908;2023-04-03T13:02:22;9.90;92.20
23685;DHT22;12020;51.384;6.908;2023-04-03T13:04:53;9.80;90.90
23685;DHT22;12020;51.384;6.908;2023-04-03T13:07:21;9.70;91.70
23685;DHT22;12020;51.384;6.908;2023-04-03T13:15:19;9.40;93.60
23685;DHT22;12020;51.384;6.908;2023-04-03T13:17:45;9.50;92.70
23685;DHT22;12020;51.384;6.908;2023-04-03T13:20:25;9.50;91.70
23685;DHT22;12020;51.384;6.908;2023-04-03T13:25:21;9.50;91.70
23685;DHT22;12020;51.384;6.908;2023-04-03T13:27:48;9.50;92.70
23685;DHT22;12020;51.384;6.908;2023-04-03T13:30:32;9.40;92.50
23685;DHT22;12020;51.384;6.908;2023-04-03T13:33:01;9.30;93.40
23685;DHT22;12020;51.384;6.908;2023-04-03T13:35:37;9.30;92.40
23685;DHT22;12020;51.384;6.908;2023-04-03T13:38:22;9.20;93.10
23685;DHT22;12020;51.384;6.908;2023-04-03T13:40:55;9.20;93.80
23685;DHT22;12020;51.384;6.908;2023-04-03T13:43:27;9.30;93.10
23685;DHT22;12020;51.384;6.908;2023-04-03T13:48:44;9.30;93.40
23685;DHT22;12020;51.384;6.908;2023-04-03T13:53:54;9.30;94.00
23685;DHT22;12020;51.384;6.908;2023-04-03T13:56:22;9.30;92.60
23685;DHT22;12020;51.384;6.908;2023-04-03T14:07:08;9.10;92.40
23685;DHT22;12020;51.384;6.908;2023-04-03T14:09:34;9.20;93.40
23685;DHT22;12020;51.384;6.908;2023-04-03T14:12:06;9.20;92.80
23685;DHT22;12020;51.384;6.908;2023-04-03T14:14:35;9.20;93.80
23685;DHT22;12020;51.384;6.908;2023-04-03T14:17:10;9.30;93.30
23685;DHT22;12020;51.384;6.908;2023-04-03T14:19:38;9.40;93.90
23685;DHT22;12020;51.384;6.908;2023-04-03T14:22:19;9.40;92.40
23685;DHT22;12020;51.384;6.908;2023-04-03T14:24:48;9.40;92.00
23685;DHT22;12020;51.384;6.908;2023-04-03T14:27:26;9.40;93.00
23685;DHT22;12020;51.384;6.908;2023-04-03T14:29:53;9.40;93.10
23685;DHT22;12020;51.384;6.908;2023-04-03T14:32:21;9.30;92.80
23685;DHT22;12020;51.384;6.908;2023-04-03T14:34:49;9.20;93.80
23685;DHT22;12020;51.384;6.908;2023-04-03T14:37:19;9.20;93.40
23685;DHT22;12020;51.384;6.908;2023-04-03T14:39:46;9.10;93.40
23685;DHT22;12020;51.384;6.908;2023-04-03T14:42:22;9.00;93.80
23685;DHT22;12020;51.384;6.908;2023-04-03T14:44:48;9.10;93.60
23685;DHT22;12020;51.384;6.908;2023-04-03T14:47:17;9.10;93.60
23685;DHT22;12020;51.384;6.908;2023-04-03T14:49:43;9.20;94.20
23685;DHT22;12020;51.384;6.908;2023-04-03T14:52:21;9.10;94.90
23685;DHT22;12020;51.384;6.908;2023-04-03T14:54:48;9.10;93.90
23685;DHT22;12020;51.384;6.908;2023-04-03T14:57:16;9.10;94.20
23685;DHT22;12020;51.384;6.908;2023-04-03T14:59:43;9.10;94.40
23685;DHT22;12020;51.384;6.908;2023-04-03T15:02:33;9.10;93.90
23685;DHT22;12020;51.384;6.908;2023-04-03T15:05:03;9.00;94.70
23685;DHT22;12020;51.384;6.908;2023-04-03T15:07:33;9.00;94.10
23685;DHT22;12020;51.384;6.908;2023-04-03T15:10:20;9.00;94.60
23685;DHT22;12020;51.384;6.908;2023-04-03T15:12:47;9.00;94.30
23685;DHT22;12020;51.384;6.908;2023-04-03T15:15:14;9.00;95.50
23685;DHT22;12020;51.384;6.908;2023-04-03T15:17:41;9.00;94.50
23685;DHT22;12020;51.384;6.908;2023-04-03T15:20:14;9.00;94.40
23685;DHT22;12020;51.384;6.908;2023-04-03T15:22:40;9.10;94.00
23685;DHT22;12020;51.384;6.908;2023-04-03T15:25:06;9.10;94.50
23685;DHT22;12020;51.384;6.908;2023-04-03T15:27:32;9.10;94.20
23685;DHT22;12020;51.384;6.908;2023-04-03T15:29:58;9.10;94.50
23685;DHT22;12020;51.384;6.908;2023-04-03T15:32:24;9.10;94.10
23685;DHT22;12020;51.384;6.908;2023-04-03T15:34:50;9.10;94.20
23685;DHT22;12020;51.384;6.908;2023-04-03T15:37:16;9.10;93.60
23685;DHT22;12020;51.384;6.908;2023-04-03T15:39:42;9.00;93.80
23685;DHT22;12020;51.384;6.908;2023-04-03T15:42:08;9.00;93.70
23685;DHT22;12020;51.384;6.908;2023-04-03T15:44:34;9.00;93.80
23685;DHT22;12020;51.384;6.908;2023-04-03T15:47:00;9.10;94.20
23685;DHT22;12020;51.384;6.908;2023-04-03T15:49:27;9.00;93.90
23685;DHT22;12020;51.384;6.908;2023-04-03T15:51:53;9.10;94.40
23685;DHT22;12020;51.384;6.908;2023-04-03T15:54:19;9.00;93.60
23685;DHT22;12020;51.384;6.908;2023-04-03T15:56:44;8.90;94.10
23685;DHT22;12020;51.384;6.908;2023-04-03T15:59:10;8.80;95.00
23685;DHT22;12020;51.384;6.908;2023-04-03T16:01:37;8.80;94.40
23685;DHT22;12020;51.384;6.908;2023-04-03T16:04:03;8.70;94.50
23685;DHT22;12020;51.384;6.908;2023-04-03T16:06:29;8.70;94.40
23685;DHT22;12020;51.384;6.908;2023-04-03T16:08:56;8.70;94.90
23685;DHT22;12020;51.384;6.908;2023-04-03T16:11:24;8.60;94.60
23685;DHT22;12020;51.384;6.908;2023-04-03T16:13:51;8.60;95.00
23685;DHT22;12020;51.384;6.908;2023-04-03T16:16:17;8.60;95.20
23685;DHT22;12020;51.384;6.908;2023-04-03T16:18:42;8.60;94.00
23685;DHT22;12020;51.384;6.908;2023-04-03T16:21:08;8.50;93.20
23685;DHT22;12020;51.384;6.908;2023-04-03T16:23:35;8.40;93.30
23685;DHT22;12020;51.384;6.908;2023-04-03T16:26:01;8.40;93.40
23685;DHT22;12020;51.384;6.908;2023-04-03T16:28:26;8.40;93.70
23685;DHT22;12020;51.384;6.908;2023-04-03T16:30:52;8.40;94.30
23685;DHT22;12020;51.384;6.908;2023-04-03T16:33:18;8.40;94.10
23685;DHT22;12020;51.384;6.908;2023-04-03T16:35:46;8.40;94.30
23685;DHT22;12020;51.384;6.908;2023-04-03T16:38:13;8.40;94.70
23685;DHT22;12020;51.384;6.908;2023-04-03T16:40:39;8.40;95.40
23685;DHT22;12020;51.384;6.908;2023-04-03T16:43:05;8.40;95.00
23685;DHT22;12020;51.384;6.908;2023-04-03T16:45:30;8.40;95.30
23685;DHT22;12020;51.384;6.908;2023-04-03T16:47:56;8.30;95.60
23685;DHT22;12020;51.384;6.908;2023-04-03T16:50:22;8.30;95.30
23685;DHT22;12020;51.384;6.908;2023-04-03T16:52:47;8.30;95.30
23685;DHT22;12020;51.384;6.908;2023-04-03T16:55:13;8.30;95.50
23685;DHT22;12020;51.384;6.908;2023-04-03T16:57:39;8.30;95.40
23685;DHT22;12020;51.384;6.908;2023-04-03T17:00:06;8.30;95.20
23685;DHT22;12020;51.384;6.908;2023-04-03T17:02:32;8.30;94.70
23685;DHT22;12020;51.384;6.908;2023-04-03T17:04:58;8.40;96.80
23685;DHT22;12020;51.384;6.908;2023-04-03T17:07:25;8.50;99.90
23685;DHT22;12020;51.384;6.908;2023-04-03T17:09:51;8.80;97.80
23685;DHT22;12020;51.384;6.908;2023-04-03T17:12:19;8.60;94.60
23685;DHT22;12020;51.384;6.908;2023-04-03T17:14:45;8.50;94.10
23685;DHT22;12020;51.384;6.908;2023-04-03T17:17:13;8.30;94.10
23685;DHT22;12020;51.384;6.908;2023-04-03T17:19:39;8.30;94.50
23685;DHT22;12020;51.384;6.908;2023-04-03T17:22:07;8.30;94.80
23685;DHT22;12020;51.384;6.908;2023-04-03T17:24:33;8.30;94.80
23685;DHT22;12020;51.384;6.908;2023-04-03T17:26:59;8.20;94.90
23685;DHT22;12020;51.384;6.908;2023-04-03T17:29:25;8.20;94.70